sensor_id;sensor_type;location;lat;lon;timestamp;temperature;humidity
27368;DHT22;14839;48.106;11.618;2023-09-19T04:02:15;16.30;94.60
27368;DHT22;14839;48.106;11.618;2023-09-19T04:04:51;16.30;94.60
27368;DHT22;14839;48.106;11.618;2023-09-19T04:07:20;16.30;94.60
27368;DHT22;14839;48.106;11.618;2023-09-19T04:09:51;16.30;94.60
27368;DHT22;14839;48.106;11.618;2023-09-19T04:12:19;16.40;94.60
27368;DHT22;14839;48.106;11.618;2023-09-19T04:14:44;16.40;94.60
27368;DHT22;14839;48.106;11.618;2023-09-19T04:17:10;16.40;94.60
27368;DHT22;14839;48.106;11.618;2023-09-19T04:19:36;16.40;94.60
27368;DHT22;14839;48.106;11.618;2023-09-19T04:22:02;16.40;94.60
27368;DHT22;14839;48.106;11.618;2023-09-19T04:24:29;16.50;94.60
27368;DHT22;14839;48.106;11.618;2023-09-19T04:26:55;16.50;94.60
27368;DHT22;14839;48.106;11.618;2023-09-19T04:29:22;16.50;94.60
27368;DHT22;14839;48.106;11.618;2023-09-19T04:31:48;16.60;94.60
27368;DHT22;14839;48.106;11.618;2023-09-19T04:34:13;16.60;94.60
27368;DHT22;14839;48.106;11.618;2023-09-19T04:36:42;16.70;94.60
27368;DHT22;14839;48.106;11.618;2023-09-19T04:39:09;16.70;94.60
27368;DHT22;14839;48.106;11.618;2023-09-19T04:41:36;16.70;94.60
27368;DHT22;14839;48.106;11.618;2023-09-19T04:44:05;16.70;94.60
27368;DHT22;14839;48.106;11.618;2023-09-19T04:46:30;16.80;94.60
27368;DHT22;14839;48.106;11.618;2023-09-19T04:48:56;16.80;94.60
27368;DHT22;14839;48.106;11.618;2023-09-19T04:51:25;16.80;94.60
27368;DHT22;14839;48.106;11.618;2023-09-19T04:53:54;16.80;94.60
27368;DHT22;14839;48.106;11.618;2023-09-19T04:56:20;16.80;94.60
27368;DHT22;14839;48.106;11.618;2023-09-19T04:58:46;16.80;94.60
27368;DHT22;14839;48.106;11.618;2023-09-19T05:01:12;16.90;94.60
27368;DHT22;14839;48.106;11.618;2023-09-19T05:03:43;16.90;94.60
27368;DHT22;14839;48.106;11.618;2023-09-19T05:06:10;16.90;94.60
27368;DHT22;14839;48.106;11.618;2023-09-19T05:08:36;16.90;94.60
27368;DHT22;14839;48.106;11.618;2023-09-19T05:11:02;17.00;94.60
27368;DHT22;14839;48.106;11.618;2023-09-19T05:13:27;17.00;94.60
27368;DHT22;14839;48.106;11.618;2023-09-19T05:15:53;17.00;94.60
27368;DHT22;14839;48.106;11.618;2023-09-19T05:18:22;17.10;94.60
27368;DHT22;14839;48.106;11.618;2023-09-19T05:20:48;17.20;94.60
27368;DHT22;14839;48.106;11.618;2023-09-19T05:23:15;17.30;94.60
27368;DHT22;14839;48.106;11.618;2023-09-19T05:25:45;17.30;94.60
27368;DHT22;14839;48.106;11.618;2023-09-19T05:28:11;17.40;94.60
27368;DHT22;14839;48.106;11.618;2023-09-19T05:30:40;17.40;94.60
27368;DHT22;14839;48.106;11.618;2023-09-19T05:33:07;17.50;94.60
27368;DHT22;14839;48.106;11.618;2023-09-19T05:35:33;17.50;94.60
27368;DHT22;14839;48.106;11.618;2023-09-19T05:38:00;17.50;94.60
27368;DHT22;14839;48.106;11.618;2023-09-19T05:40:26;17.50;94.60
27368;DHT22;14839;48.106;11.618;2023-09-19T05:42:52;17.50;94.60
27368;DHT22;14839;48.106;11.618;2023-09-19T05:45:18;17.50;94.60
27368;DHT22;14839;48.106;11.618;2023-09-19T05:47:50;17.50;94.60
27368;DHT22;14839;48.106;11.618;2023-09-19T05:50:19;17.50;94.60
27368;DHT22;14839;48.106;11.618;2023-09-19T05:52:51;17.50;94.60
27368;DHT22;14839;48.106;11.618;2023-09-19T05:55:17;17.50;94.60
27368;DHT22;14839;48.106;11.618;2023-09-19T05:57:43;17.50;94.60
27368;DHT22;14839;48.106;11.618;2023-09-19T06:00:25;17.60;94.60
27368;DHT22;14839;48.106;11.618;2023-09-19T06:02:57;17.50;94.60
27368;DHT22;14839;48.106;11.618;2023-09-19T06:05:25;17.60;94.60
27368;DHT22;14839;48.106;11.618;2023-09-19T06:07:53;17.70;94.60
27368;DHT22;14839;48.106;11.618;2023-09-19T06:10:22;18.00;94.60
27368;DHT22;14839;48.106;11.618;2023-09-19T06:12:48;18.30;93.90
27368;DHT22;14839;48.106;11.618;2023-09-19T06:15:15;18.50;93.30
27368;DHT22;14839;48.106;11.618;2023-09-19T06:17:51;18.80;93.40
27368;DHT22;14839;48.106;11.618;2023-09-19T06:20:17;19.00;91.50
27368;DHT22;14839;48.106;11.618;2023-09-19T06:22:45;19.10;91.20
27368;DHT22;14839;48.106;11.618;2023-09-19T06:25:12;19.40;92.10
27368;DHT22;14839;48.106;11.618;2023-09-19T06:27:45;20.30;87.50
27368;DHT22;14839;48.106;11.618;2023-09-19T06:30:14;21.00;84.80
27368;DHT22;14839;48.106;11.618;2023-09-19T06:32:42;21.30;83.60
27368;DHT22;14839;48.106;11.618;2023-09-19T06:35:10;21.40;84.80
27368;DHT22;14839;48.106;11.618;2023-09-19T06:37:39;21.80;82.70
27368;DHT22;14839;48.106;11.618;2023-09-19T06:42:32;22.20;79.10
27368;DHT22;14839;48.106;11.618;2023-09-19T06:44:58;21.90;80.80
27368;DHT22;14839;48.106;11.618;2023-09-19T06:47:24;21.50;82.60
27368;DHT22;14839;48.106;11.618;2023-09-19T06:49:51;21.60;85.00
27368;DHT22;14839;48.106;11.618;2023-09-19T06:52:17;21.70;81.20
27368;DHT22;14839;48.106;11.618;2023-09-19T06:54:48;21.40;81.40
27368;DHT22;14839;48.106;11.618;2023-09-19T06:57:16;21.00;82.60
27368;DHT22;14839;48.106;11.618;2023-09-19T06:59:41;20.50;84.40
27368;DHT22;14839;48.106;11.618;2023-09-19T07:02:07;20.00;87.80
27368;DHT22;14839;48.106;11.618;2023-09-19T07:04:33;19.70;89.60
27368;DHT22;14839;48.106;11.618;2023-09-19T07:06:59;19.80;89.50
27368;DHT22;14839;48.106;11.618;2023-09-19T07:09:25;20.70;91.10
27368;DHT22;14839;48.106;11.618;2023-09-19T07:11:56;21.30;83.30
27368;DHT22;14839;48.106;11.618;2023-09-19T07:14:21;21.30;86.00
27368;DHT22;14839;48.106;11.618;2023-09-19T07:16:47;21.10;83.80
27368;DHT22;14839;48.106;11.618;2023-09-19T07:19:14;20.80;85.40
27368;DHT22;14839;48.106;11.618;2023-09-19T07:21:40;20.40;87.10
27368;DHT22;14839;48.106;11.618;2023-09-19T07:24:06;20.00;87.20
27368;DHT22;14839;48.106;11.618;2023-09-19T07:26:33;19.80;89.20
27368;DHT22;14839;48.106;11.618;2023-09-19T07:28:59;19.70;90.80
27368;DHT22;14839;48.106;11.618;2023-09-19T07:31:25;19.60;90.10
27368;DHT22;14839;48.106;11.618;2023-09-19T07:33:52;19.60;91.00
27368;DHT22;14839;48.106;11.618;2023-09-19T07:36:18;19.60;90.70
27368;DHT22;14839;48.106;11.618;2023-09-19T07:38:45;19.60;91.70
27368;DHT22;14839;48.106;11.618;2023-09-19T07:41:10;19.70;90.30
27368;DHT22;14839;48.106;11.618;2023-09-19T07:43:36;20.20;91.80
27368;DHT22;14839;48.106;11.618;2023-09-19T07:46:07;20.70;89.50
27368;DHT22;14839;48.106;11.618;2023-09-19T07:48:37;20.70;88.00
27368;DHT22;14839;48.106;11.618;2023-09-19T07:51:05;20.70;88.60
27368;DHT22;14839;48.106;11.618;2023-09-19T07:53:32;20.70;86.80
27368;DHT22;14839;48.106;11.618;2023-09-19T07:56:07;20.90;87.80
27368;DHT22;14839;48.106;11.618;2023-09-19T07:58:34;21.10;86.90
27368;DHT22;14839;48.106;11.618;2023-09-19T08:01:08;21.10;84.70
27368;DHT22;14839;48.106;11.618;2023-09-19T08:03:36;21.00;86.50
27368;DHT22;14839;48.106;11.618;2023-09-19T08:06:06;21.20;86.90
27368;DHT22;14839;48.106;11.618;2023-09-19T08:08:33;21.40;86.60
27368;DHT22;14839;48.106;11.618;2023-09-19T08:11:08;21.40;82.90
27368;DHT22;14839;48.106;11.618;2023-09-19T08:13:40;21.20;85.60
27368;DHT22;14839;48.106;11.618;2023-09-19T08:16:10;21.10;84.10
27368;DHT22;14839;48.106;11.618;2023-09-19T08:18:36;21.00;85.10
27368;DHT22;14839;48.106;11.618;2023-09-19T08:21:08;21.20;86.90
27368;DHT22;14839;48.106;11.618;2023-09-19T08:23:38;21.20;84.40
27368;DHT22;14839;48.106;11.618;2023-09-19T08:26:04;21.20;86.90
27368;DHT22;14839;48.106;11.618;2023-09-19T08:28:36;21.40;84.70
27368;DHT22;14839;48.106;11.618;2023-09-19T08:31:06;21.80;84.80
27368;DHT22;14839;48.106;11.618;2023-09-19T08:33:36;22.30;85.00
27368;DHT22;14839;48.106;11.618;2023-09-19T08:36:03;22.60;82.10
27368;DHT22;14839;48.106;11.618;2023-09-19T08:38:31;22.60;82.10
27368;DHT22;14839;48.106;11.618;2023-09-19T08:40:59;22.60;80.00
27368;DHT22;14839;48.106;11.618;2023-09-19T08:43:28;22.70;78.50
27368;DHT22;14839;48.106;11.618;2023-09-19T08:46:14;22.70;77.60
27368;DHT22;14839;48.106;11.618;2023-09-19T08:48:57;22.90;79.40
27368;DHT22;14839;48.106;11.618;2023-09-19T08:51:41;23.40;79.60
27368;DHT22;14839;48.106;11.618;2023-09-19T08:56:53;24.30;73.40
27368;DHT22;14839;48.106;11.618;2023-09-19T08:59:21;24.30;74.00
27368;DHT22;14839;48.106;11.618;2023-09-19T09:01:53;24.50;73.70
27368;DHT22;14839;48.106;11.618;2023-09-19T09:04:19;24.40;73.90
27368;DHT22;14839;48.106;11.618;2023-09-19T09:06:45;24.10;74.00
27368;DHT22;14839;48.106;11.618;2023-09-19T09:09:15;23.80;73.10
27368;DHT22;14839;48.106;11.618;2023-09-19T09:11:40;23.70;75.40
27368;DHT22;14839;48.106;11.618;2023-09-19T09:14:06;23.40;74.80
27368;DHT22;14839;48.106;11.618;2023-09-19T09:16:33;23.10;75.40
27368;DHT22;14839;48.106;11.618;2023-09-19T09:18:58;23.00;75.80
27368;DHT22;14839;48.106;11.618;2023-09-19T09:21:25;23.10;75.50
27368;DHT22;14839;48.106;11.618;2023-09-19T09:23:51;22.60;76.10
27368;DHT22;14839;48.106;11.618;2023-09-19T09:29:04;21.80;79.60
27368;DHT22;14839;48.106;11.618;2023-09-19T09:31:29;21.40;79.70
27368;DHT22;14839;48.106;11.618;2023-09-19T09:33:56;21.20;81.50
27368;DHT22;14839;48.106;11.618;2023-09-19T09:36:35;21.60;87.70
27368;DHT22;14839;48.106;11.618;2023-09-19T09:39:02;22.40;81.50
27368;DHT22;14839;48.106;11.618;2023-09-19T09:41:42;23.00;75.40
27368;DHT22;14839;48.106;11.618;2023-09-19T09:44:16;23.20;73.30
27368;DHT22;14839;48.106;11.618;2023-09-19T09:46:47;23.40;75.40
27368;DHT22;14839;48.106;11.618;2023-09-19T09:49:27;23.60;73.00
27368;DHT22;14839;48.106;11.618;2023-09-19T09:52:07;23.10;73.30
27368;DHT22;14839;48.106;11.618;2023-09-19T09:54:35;22.60;72.70
27368;DHT22;14839;48.106;11.618;2023-09-19T09:57:06;22.30;74.50
27368;DHT22;14839;48.106;11.618;2023-09-19T09:59:53;22.10;76.30
27368;DHT22;14839;48.106;11.618;2023-09-19T10:02:28;21.70;77.20
27368;DHT22;14839;48.106;11.618;2023-09-19T10:04:57;21.70;77.20
27368;DHT22;14839;48.106;11.618;2023-09-19T10:07:40;22.10;80.60
27368;DHT22;14839;48.106;11.618;2023-09-19T10:10:08;22.60;76.10
27368;DHT22;14839;48.106;11.618;2023-09-19T10:12:55;22.70;77.50
27368;DHT22;14839;48.106;11.618;2023-09-19T10:15:32;23.00;74.80
27368;DHT22;14839;48.106;11.618;2023-09-19T10:18:01;23.40;74.20
27368;DHT22;14839;48.106;11.618;2023-09-19T10:20:30;23.70;72.40
27368;DHT22;14839;48.106;11.618;2023-09-19T10:22:56;23.70;68.30
27368;DHT22;14839;48.106;11.618;2023-09-19T10:25:30;23.50;73.10
27368;DHT22;14839;48.106;11.618;2023-09-19T10:28:00;23.30;72.70
27368;DHT22;14839;48.106;11.618;2023-09-19T10:30:31;23.40;70.70
27368;DHT22;14839;48.106;11.618;2023-09-19T10:33:01;23.50;72.20
27368;DHT22;14839;48.106;11.618;2023-09-19T10:35:28;23.50;70.10
27368;DHT22;14839;48.106;11.618;2023-09-19T10:37:56;23.40;71.80
27368;DHT22;14839;48.106;11.618;2023-09-19T10:40:23;23.40;70.10
27368;DHT22;14839;48.106;11.618;2023-09-19T10:43:00;23.40;71.50
27368;DHT22;14839;48.106;11.618;2023-09-19T10:45:26;23.50;75.10
27368;DHT22;14839;48.106;11.618;2023-09-19T10:47:53;23.70;69.40
27368;DHT22;14839;48.106;11.618;2023-09-19T10:50:20;23.70;71.00
27368;DHT22;14839;48.106;11.618;2023-09-19T10:52:48;23.70;73.00
27368;DHT22;14839;48.106;11.618;2023-09-19T10:55:19;23.80;72.70
27368;DHT22;14839;48.106;11.618;2023-09-19T10:57:47;23.80;72.40
27368;DHT22;14839;48.106;11.618;2023-09-19T11:00:13;23.80;69.20
27368;DHT22;14839;48.106;11.618;2023-09-19T11:05:41;23.30;71.80
27368;DHT22;14839;48.106;11.618;2023-09-19T11:08:07;23.30;72.10
27368;DHT22;14839;48.106;11.618;2023-09-19T11:10:49;23.30;68.80
27368;DHT22;14839;48.106;11.618;2023-09-19T11:13:29;23.50;71.20
27368;DHT22;14839;48.106;11.618;2023-09-19T11:26:50;24.40;68.80
27368;DHT22;14839;48.106;11.618;2023-09-19T11:29:30;24.70;67.70
27368;DHT22;14839;48.106;11.618;2023-09-19T11:31:57;24.70;62.60
27368;DHT22;14839;48.106;11.618;2023-09-19T11:40:08;24.30;66.20
27368;DHT22;14839;48.106;11.618;2023-09-19T11:42:43;24.40;64.90
27368;DHT22;14839;48.106;11.618;2023-09-19T11:48:16;24.60;64.60
27368;DHT22;14839;48.106;11.618;2023-09-19T11:50:45;24.70;67.30
27368;DHT22;14839;48.106;11.618;2023-09-19T11:53:13;24.60;62.90
27368;DHT22;14839;48.106;11.618;2023-09-19T11:55:40;24.60;65.50
27368;DHT22;14839;48.106;11.618;2023-09-19T11:58:08;24.50;63.40
27368;DHT22;14839;48.106;11.618;2023-09-19T12:00:35;24.40;66.20
27368;DHT22;14839;48.106;11.618;2023-09-19T12:03:08;24.50;67.10
27368;DHT22;14839;48.106;11.618;2023-09-19T12:05:37;24.50;63.80
27368;DHT22;14839;48.106;11.618;2023-09-19T12:08:10;24.30;62.80
27368;DHT22;14839;48.106;11.618;2023-09-19T12:10:47;24.00;64.30
27368;DHT22;14839;48.106;11.618;2023-09-19T12:13:18;23.80;62.90
27368;DHT22;14839;48.106;11.618;2023-09-19T12:15:45;23.70;66.20
27368;DHT22;14839;48.106;11.618;2023-09-19T12:18:29;23.70;66.40
27368;DHT22;14839;48.106;11.618;2023-09-19T12:20:55;23.70;65.90
27368;DHT22;14839;48.106;11.618;2023-09-19T12:23:23;23.70;67.00
27368;DHT22;14839;48.106;11.618;2023-09-19T12:25:48;23.50;65.60
27368;DHT22;14839;48.106;11.618;2023-09-19T12:28:18;23.30;66.20
27368;DHT22;14839;48.106;11.618;2023-09-19T12:30:44;23.10;65.60
27368;DHT22;14839;48.106;11.618;2023-09-19T12:33:20;23.10;66.70
27368;DHT22;14839;48.106;11.618;2023-09-19T12:35:50;23.40;68.60
27368;DHT22;14839;48.106;11.618;2023-09-19T12:38:28;23.50;67.40
27368;DHT22;14839;48.106;11.618;2023-09-19T12:40:55;23.60;66.10
27368;DHT22;14839;48.106;11.618;2023-09-19T12:43:22;23.80;67.60
27368;DHT22;14839;48.106;11.618;2023-09-19T12:45:48;23.90;65.20
27368;DHT22;14839;48.106;11.618;2023-09-19T12:48:24;23.90;64.70
27368;DHT22;14839;48.106;11.618;2023-09-19T12:51:03;23.70;66.10
27368;DHT22;14839;48.106;11.618;2023-09-19T12:53:34;23.60;68.20
27368;DHT22;14839;48.106;11.618;2023-09-19T12:56:03;23.50;65.60
27368;DHT22;14839;48.106;11.618;2023-09-19T12:58:34;23.30;66.80
27368;DHT22;14839;48.106;11.618;2023-09-19T13:01:01;23.30;67.40
27368;DHT22;14839;48.106;11.618;2023-09-19T13:03:30;23.30;67.30
27368;DHT22;14839;48.106;11.618;2023-09-19T13:06:02;23.30;68.80
27368;DHT22;14839;48.106;11.618;2023-09-19T13:08:37;23.20;67.10
27368;DHT22;14839;48.106;11.618;2023-09-19T13:11:15;23.10;70.10
27368;DHT22;14839;48.106;11.618;2023-09-19T13:16:11;23.30;67.70
27368;DHT22;14839;48.106;11.618;2023-09-19T13:18:44;23.30;68.90
27368;DHT22;14839;48.106;11.618;2023-09-19T13:21:12;23.20;67.90
27368;DHT22;14839;48.106;11.618;2023-09-19T13:23:43;23.20;67.30
27368;DHT22;14839;48.106;11.618;2023-09-19T13:26:10;23.30;67.70
27368;DHT22;14839;48.106;11.618;2023-09-19T13:28:37;23.30;69.10
27368;DHT22;14839;48.106;11.618;2023-09-19T13:31:03;23.20;70.00
27368;DHT22;14839;48.106;11.618;2023-09-19T13:33:33;23.20;68.00
27368;DHT22;14839;48.106;11.618;2023-09-19T13:35:59;23.20;68.00
27368;DHT22;14839;48.106;11.618;2023-09-19T13:38:24;23.10;68.30
27368;DHT22;14839;48.106;11.618;2023-09-19T13:40:50;23.10;68.60
27368;DHT22;14839;48.106;11.618;2023-09-19T13:43:17;23.20;69.10
27368;DHT22;14839;48.106;11.618;2023-09-19T13:45:43;23.20;68.90
27368;DHT22;14839;48.106;11.618;2023-09-19T13:48:09;23.30;69.50
27368;DHT22;14839;48.106;11.618;2023-09-19T13:50:37;23.40;68.50
27368;DHT22;14839;48.106;11.618;2023-09-19T13:53:10;23.40;67.30
27368;DHT22;14839;48.106;11.618;2023-09-19T13:55:35;23.30;66.50
27368;DHT22;14839;48.106;11.618;2023-09-19T13:58:03;23.30;65.20
27368;DHT22;14839;48.106;11.618;2023-09-19T14:00:32;23.30;65.50
27368;DHT22;14839;48.106;11.618;2023-09-19T14:03:00;23.30;64.60
27368;DHT22;14839;48.106;11.618;2023-09-19T14:05:26;23.30;63.50
27368;DHT22;14839;48.106;11.618;2023-09-19T14:07:52;23.30;65.80
27368;DHT22;14839;48.106;11.618;2023-09-19T14:10:18;23.30;65.60
27368;DHT22;14839;48.106;11.618;2023-09-19T14:12:47;23.20;65.20
27368;DHT22;14839;48.106;11.618;2023-09-19T14:15:13;23.10;67.60
27368;DHT22;14839;48.106;11.618;2023-09-19T14:17:39;23.10;68.20
27368;DHT22;14839;48.106;11.618;2023-09-19T14:20:08;23.10;66.70
27368;DHT22;14839;48.106;11.618;2023-09-19T14:22:35;23.10;68.00
27368;DHT22;14839;48.106;11.618;2023-09-19T14:25:05;23.20;68.80
27368;DHT22;14839;48.106;11.618;2023-09-19T14:27:31;23.30;68.80
27368;DHT22;14839;48.106;11.618;2023-09-19T14:29:56;23.40;67.70
27368;DHT22;14839;48.106;11.618;2023-09-19T14:32:23;23.40;67.90
27368;DHT22;14839;48.106;11.618;2023-09-19T14:34:48;23.40;67.10
27368;DHT22;14839;48.106;11.618;2023-09-19T14:37:14;23.40;68.20
27368;DHT22;14839;48.106;11.618;2023-09-19T14:39:41;23.30;68.00
27368;DHT22;14839;48.106;11.618;2023-09-19T14:42:10;23.10;68.90
27368;DHT22;14839;48.106;11.618;2023-09-19T14:44:36;23.10;69.20
27368;DHT22;14839;48.106;11.618;2023-09-19T14:47:03;23.00;67.00
27368;DHT22;14839;48.106;11.618;2023-09-19T14:49:33;22.80;68.50
27368;DHT22;14839;48.106;11.618;2023-09-19T14:51:59;22.80;70.00
27368;DHT22;14839;48.106;11.618;2023-09-19T14:54:25;22.70;70.10
27368;DHT22;14839;48.106;11.618;2023-09-19T14:56:54;22.80;71.20
27368;DHT22;14839;48.106;11.618;2023-09-19T14:59:30;22.90;70.70
27368;DHT22;14839;48.106;11.618;2023-09-19T15:01:56;22.90;68.50
27368;DHT22;14839;48.106;11.618;2023-09-19T15:04:22;22.90;68.50
27368;DHT22;14839;48.106;11.618;2023-09-19T15:06:47;22.90;67.90
27368;DHT22;14839;48.106;11.618;2023-09-19T15:09:14;22.90;68.90
27368;DHT22;14839;48.106;11.618;2023-09-19T15:11:39;22.90;65.60
27368;DHT22;14839;48.106;11.618;2023-09-19T15:14:05;22.80;67.40
27368;DHT22;14839;48.106;11.618;2023-09-19T15:16:33;22.80;67.30
27368;DHT22;14839;48.106;11.618;2023-09-19T15:19:01;22.90;68.20
27368;DHT22;14839;48.106;11.618;2023-09-19T15:21:26;22.90;67.40
27368;DHT22;14839;48.106;11.618;2023-09-19T15:23:52;22.80;66.20
27368;DHT22;14839;48.106;11.618;2023-09-19T15:26:18;22.80;68.20
27368;DHT22;14839;48.106;11.618;2023-09-19T15:28:47;22.80;67.70
27368;DHT22;14839;48.106;11.618;2023-09-19T15:31:13;22.70;66.80
27368;DHT22;14839;48.106;11.618;2023-09-19T15:33:40;22.70;68.30
27368;DHT22;14839;48.106;11.618;2023-09-19T15:36:07;22.70;68.60
27368;DHT22;14839;48.106;11.618;2023-09-19T15:39:00;22.70;68.20
27368;DHT22;14839;48.106;11.618;2023-09-19T15:41:32;22.60;69.10
27368;DHT22;14839;48.106;11.618;2023-09-19T15:43:58;22.60;70.10
27368;DHT22;14839;48.106;11.618;2023-09-19T15:46:27;22.60;69.70
27368;DHT22;14839;48.106;11.618;2023-09-19T15:48:55;22.60;70.10
27368;DHT22;14839;48.106;11.618;2023-09-19T15:51:21;22.50;68.80
27368;DHT22;14839;48.106;11.618;2023-09-19T15:53:49;22.50;69.10
27368;DHT22;14839;48.106;11.618;2023-09-19T15:56:16;22.40;69.50
27368;DHT22;14839;48.106;11.618;2023-09-19T15:58:44;22.30;68.90
27368;DHT22;14839;48.106;11.618;2023-09-19T16:01:11;22.20;70.10
27368;DHT22;14839;48.106;11.618;2023-09-19T16:03:43;22.20;68.60
27368;DHT22;14839;48.106;11.618;2023-09-19T16:06:10;22.20;69.50
27368;DHT22;14839;48.106;11.618;2023-09-19T16:08:45;22.10;68.80
27368;DHT22;14839;48.106;11.618;2023-09-19T16:11:11;22.10;69.40
27368;DHT22;14839;48.106;11.618;2023-09-19T16:13:41;22.00;69.70
27368;DHT22;14839;48.106;11.618;2023-09-19T16:16:07;22.00;68.90
27368;DHT22;14839;48.106;11.618;2023-09-19T16:18:33;21.90;69.10
27368;DHT22;14839;48.106;11.618;2023-09-19T16:21:04;21.90;68.50
27368;DHT22;14839;48.106;11.618;2023-09-19T16:23:30;21.80;68.90
27368;DHT22;14839;48.106;11.618;2023-09-19T16:26:06;21.80;69.70
27368;DHT22;14839;48.106;11.618;2023-09-19T16:28:32;21.70;69.80
27368;DHT22;14839;48.106;11.618;2023-09-19T16:31:00;21.70;68.80
27368;DHT22;14839;48.106;11.618;2023-09-19T16:33:28;21.70;70.10
27368;DHT22;14839;48.106;11.618;2023-09-19T16:35:53;21.60;70.30
27368;DHT22;14839;48.106;11.618;2023-09-19T16:38:19;21.50;69.50
27368;DHT22;14839;48.106;11.618;2023-09-19T16:40:53;21.40;70.60
27368;DHT22;14839;48.106;11.618;2023-09-19T16:43:19;21.40;71.60
27368;DHT22;14839;48.106;11.618;2023-09-19T16:46:00;21.30;72.10
27368;DHT22;14839;48.106;11.618;2023-09-19T16:48:27;21.30;72.50
27368;DHT22;14839;48.106;11.618;2023-09-19T16:50:54;21.20;72.70
27368;DHT22;14839;48.106;11.618;2023-09-19T16:53:20;21.10;72.50
27368;DHT22;14839;48.106;11.618;2023-09-19T16:55:47;21.10;73.00
27368;DHT22;14839;48.106;11.618;2023-09-19T16:58:16;21.00;73.10
27368;DHT22;14839;48.106;11.618;2023-09-19T17:00:43;20.90;73.90
27368;DHT22;14839;48.106;11.618;2023-09-19T17:03:10;20.80;74.80
27368;DHT22;14839;48.106;11.618;2023-09-19T17:05:38;20.70;75.80
27368;DHT22;14839;48.106;11.618;2023-09-19T17:08:09;20.60;75.80
27368;DHT22;14839;48.106;11.618;2023-09-19T17:10:36;20.60;75.70
27368;DHT22;14839;48.106;11.618;2023-09-19T17:13:02;20.50;76.60
27368;DHT22;14839;48.106;11.618;2023-09-19T17:15:32;20.40;76.90
27368;DHT22;14839;48.106;11.618;2023-09-19T17:17:58;20.30;77.60
27368;DHT22;14839;48.106;11.618;2023-09-19T17:20:28;20.20;78.20
27368;DHT22;14839;48.106;11.618;2023-09-19T17:22:54;20.10;78.80
27368;DHT22;14839;48.106;11.618;2023-09-19T17:25:20;20.00;78.80
27368;DHT22;14839;48.106;11.618;2023-09-19T17:27:46;19.90;80.30
27368;DHT22;14839;48.106;11.618;2023-09-19T17:30:13;19.80;80.80
27368;DHT22;14839;48.106;11.618;2023-09-19T17:32:45;19.70;81.70
27368;DHT22;14839;48.106;11.618;2023-09-19T17:35:12;19.60;83.00
27368;DHT22;14839;48.106;11.618;2023-09-19T17:37:38;19.60;83.50
27368;DHT22;14839;48.106;11.618;2023-09-19T17:40:10;19.40;83.80
27368;DHT22;14839;48.106;11.618;2023-09-19T17:42:42;19.30;84.80
27368;DHT22;14839;48.106;11.618;2023-09-19T17:45:12;19.20;85.70
27368;DHT22;14839;48.106;11.618;2023-09-19T17:47:43;19.00;86.00
27368;DHT22;14839;48.106;11.618;2023-09-19T17:50:10;18.90;86.50
27368;DHT22;14839;48.106;11.618;2023-09-19T17:52:39;18.80;86.90
27368;DHT22;14839;48.106;11.618;2023-09-19T17:55:07;18.70;87.70
27368;DHT22;14839;48.106;11.618;2023-09-19T17:57:32;18.70;87.80
27368;DHT22;14839;48.106;11.618;2023-09-19T17:59:59;18.60;88.30
27368;DHT22;14839;48.106;11.618;2023-09-19T18:02:24;18.60;88.30
27368;DHT22;14839;48.106;11.618;2023-09-19T18:04:50;18.60;88.30
27368;DHT22;14839;48.106;11.618;2023-09-19T18:07:16;18.50;88.40
27368;DHT22;14839;48.106;11.618;2023-09-19T18:09:41;18.40;88.90
27368;DHT22;14839;48.106;11.618;2023-09-19T18:12:07;18.40;89.30
27368;DHT22;14839;48.106;11.618;2023-09-19T18:14:33;18.30;89.80
27368;DHT22;14839;48.106;11.618;2023-09-19T18:16:58;18.30;90.10
27368;DHT22;14839;48.106;11.618;2023-09-19T18:19:24;18.20;90.50
27368;DHT22;14839;48.106;11.618;2023-09-19T18:21:51;18.10;90.80
27368;DHT22;14839;48.106;11.618;2023-09-19T18:24:17;18.00;90.70
27368;DHT22;14839;48.106;11.618;2023-09-19T18:26:42;18.00;90.60
27368;DHT22;14839;48.106;11.618;2023-09-19T18:29:08;17.90;91.00
27368;DHT22;14839;48.106;11.618;2023-09-19T18:31:36;17.80;91.70
27368;DHT22;14839;48.106;11.618;2023-09-19T18:34:02;17.80;92.00
27368;DHT22;14839;48.106;11.618;2023-09-19T18:36:28;17.80;92.20
27368;DHT22;14839;48.106;11.618;2023-09-19T18:38:55;17.70;92.30
27368;DHT22;14839;48.106;11.618;2023-09-19T18:41:20;17.70;92.40
27368;DHT22;14839;48.106;11.618;2023-09-19T18:43:46;17.70;92.70
27368;DHT22;14839;48.106;11.618;2023-09-19T18:46:12;17.60;93.00
27368;DHT22;14839;48.106;11.618;2023-09-19T18:48:39;17.50;93.00
27368;DHT22;14839;48.106;11.618;2023-09-19T18:51:10;17.40;93.50
27368;DHT22;14839;48.106;11.618;2023-09-19T18:53:37;17.30;93.70
27368;DHT22;14839;48.106;11.618;2023-09-19T18:56:12;17.30;93.80
27368;DHT22;14839;48.106;11.618;2023-09-19T18:58:41;17.30;94.10
27368;DHT22;14839;48.106;11.618;2023-09-19T19:01:08;17.30;94.10
27368;DHT22;14839;48.106;11.618;2023-09-19T19:03:35;17.20;94.30
27368;DHT22;14839;48.106;11.618;2023-09-19T19:06:09;17.20;94.50
27368;DHT22;14839;48.106;11.618;2023-09-19T19:08:36;17.20;94.60
27368;DHT22;14839;48.106;11.618;2023-09-19T19:11:07;17.10;94.60
27368;DHT22;14839;48.106;11.618;2023-09-19T19:13:33;17.10;94.60
27368;DHT22;14839;48.106;11.618;2023-09-19T19:15:59;17.00;94.60
27368;DHT22;14839;48.106;11.618;2023-09-19T19:18:26;17.00;94.60
27368;DHT22;14839;48.106;11.618;2023-09-19T19:21:01;16.90;94.60
27368;DHT22;14839;48.106;11.618;2023-09-19T19:23:31;16.80;94.60
27368;DHT22;14839;48.106;11.618;2023-09-19T19:25:56;16.70;94.60
27368;DHT22;14839;48.106;11.618;2023-09-19T19:28:25;16.60;94.60
27368;DHT22;14839;48.106;11.618;2023-09-19T19:30:51;16.60;94.60
27368;DHT22;14839;48.106;11.618;2023-09-19T19:33:17;16.60;94.60
27368;DHT22;14839;48.106;11.618;2023-09-19T19:35:45;16.60;94.60
27368;DHT22;14839;48.106;11.618;2023-09-19T19:38:10;16.60;94.60
27368;DHT22;14839;48.106;11.618;2023-09-19T19:40:36;16.60;94.60
27368;DHT22;14839;48.106;11.618;2023-09-19T19:43:03;16.50;94.60
27368;DHT22;14839;48.106;11.618;2023-09-19T19:45:31;16.50;94.60
27368;DHT22;14839;48.106;11.618;2023-09-19T19:47:57;16.40;94.60
27368;DHT22;14839;48.106;11.618;2023-09-19T19:50:23;16.40;94.60
27368;DHT22;14839;48.106;11.618;2023-09-19T19:52:53;16.30;94.60
27368;DHT22;14839;48.106;11.618;2023-09-19T19:55:19;16.30;94.60
27368;DHT22;14839;48.106;11.618;2023-09-19T19:57:49;16.30;94.60